Latest Weather Observations for Luncheon Hill

IDT60801

Issued at 1:31 pm EDT Thursday 11 February 2016 (issued every 30 minutes, with the page automatically refreshed every 10 minutes)

About weather observations | Map of weather stations | Latest weather observations for TAS | Other Formats
Station Details ID: 091259 Name: LUNCHEON HILL (FORESTRY) Lat: -41.15 Lon: 145.15 Height: 344.0 m
Data from the previous 72 hours. | See also: Recent months at Luncheon Hill
Date/Time
EDT
Temp
°C
App
Temp
°C
Dew
Point
Rel
Hum
%
Delta-T
°C
Wind Press
QNH
hPa
Press
MSL
hPa
Rain
since 9 am
mm
Dir
 
Spd
km/h
Gust
km/h
Spd
kts
Gust
kts
11/01:30pm 20.6 16.8 9.2 48 6.1 SSW 19 33 10 18 - - 0.0
11/01:00pm 20.6 17.6 9.2 48 6.1 SSW 15 26 8 14 - - 0.0
11/12:30pm 19.2 14.6 9.7 54 5.1 SW 24 39 13 21 - - 0.0
11/12:00pm 21.4 18.6 9.9 48 6.3 S 15 24 8 13 - - 0.0
11/11:30am 20.1 17.1 9.4 50 5.8 S 15 33 8 18 - - 0.0
11/11:00am 18.4 13.9 8.7 53 5.1 SSW 22 33 12 18 - - 0.0
11/10:30am 19.4 16.1 9.6 53 5.3 S 17 30 9 16 - - 0.0
11/10:00am 16.6 11.3 8.6 59 4.2 SSW 26 43 14 23 - - 0.0
11/09:30am 16.5 13.2 9.4 63 3.8 SSW 17 30 9 16 - - 0.0
11/09:00am 14.8 11.6 9.8 72 2.6 SSW 17 28 9 15 - - 0.0
11/08:30am 14.4 12.3 11.2 81 1.7 S 13 19 7 10 - - 0.0
11/08:00am 12.9 11.0 10.6 86 1.2 S 11 17 6 9 - - 0.0
11/07:30am 12.3 9.2 10.4 88 1.0 SSW 17 22 9 12 - - 0.0
11/07:00am 10.9 8.0 9.8 93 0.6 S 15 20 8 11 - - 0.0
11/06:30am 10.8 8.0 9.9 94 0.5 S 15 19 8 10 - - 0.0
11/06:00am 11.0 7.6 10.4 96 0.3 S 19 28 10 15 - - 0.0
11/05:30am 11.2 8.1 10.4 95 0.4 SSW 17 22 9 12 - - 0.0
11/05:00am 11.4 8.7 10.3 93 0.6 S 15 19 8 10 - - 0.0
11/04:30am 12.0 9.4 10.6 91 0.7 SSW 15 24 8 13 - - 0.0
11/04:00am 12.5 9.5 10.7 89 1.0 S 17 24 9 13 - - 0.0
11/03:30am 13.5 10.4 11.6 88 1.0 SSW 19 30 10 16 - - 0.0
11/03:00am 14.0 11.1 12.4 90 0.9 SSW 19 32 10 17 - - 0.0
11/02:30am 14.2 11.2 12.6 90 0.9 SSW 20 30 11 16 - - 0.0
11/02:00am 14.2 11.5 12.9 92 0.7 SSW 19 28 10 15 - - 0.0
11/01:30am 14.0 11.8 13.2 95 0.4 SW 17 30 9 16 - - 0.0
11/01:00am 14.1 12.3 13.3 95 0.4 SW 15 20 8 11 - - 0.0
11/12:30am 14.2 12.4 13.2 94 0.6 SW 15 20 8 11 - - 0.0
11/12:00am 14.4 12.6 13.3 93 0.6 SW 15 22 8 12 - - 0.0
 
Date/Time
EDT
Temp
°C
App
Temp
°C
Dew
Point
Rel
Hum
%
Delta-T
°C
Wind Press
QNH
hPa
Press
MSL
hPa
Rain
since 9 am
mm
Dir
 
Spd
km/h
Gust
km/h
Spd
kts
Gust
kts
10/11:30pm 14.5 12.6 13.0 91 0.8 SSW 15 22 8 12 - - 0.0
10/11:00pm 14.4 12.8 12.8 90 0.9 SW 13 20 7 11 - - 0.0
10/10:30pm 14.4 12.4 12.6 89 1.0 SSW 15 20 8 11 - - 0.0
10/10:00pm 14.7 12.6 12.4 86 1.3 SSW 15 22 8 12 - - 0.0
10/09:30pm 14.8 12.3 12.3 85 1.4 SSW 17 30 9 16 - - 0.0
10/09:00pm 15.0 12.0 12.5 85 1.4 SW 20 33 11 18 - - 0.0
10/08:30pm 15.2 11.7 12.2 82 1.7 SW 22 32 12 17 - - 0.0
10/08:00pm 15.4 12.4 12.0 80 1.9 SSW 19 28 10 15 - - 0.0
10/07:30pm 15.4 11.3 11.6 78 2.1 SW 24 39 13 21 - - 0.0
10/07:00pm 15.7 10.9 11.7 77 2.2 SSW 28 39 15 21 - - 0.0
10/06:30pm 15.8 10.9 11.4 75 2.4 SSW 28 41 15 22 - - 0.0
10/06:00pm 16.1 13.0 11.5 74 2.5 SSW 19 28 10 15 - - 0.0
10/05:30pm 16.3 12.6 11.5 73 2.6 SSW 22 37 12 20 - - 0.0
10/05:00pm 17.4 13.6 11.0 66 3.5 SW 22 35 12 19 - - 0.0
10/04:30pm 17.1 12.9 11.2 68 3.2 SW 24 37 13 20 - - 0.0
10/04:00pm 18.5 13.4 10.6 60 4.3 SW 28 44 15 24 - - 0.0
10/03:48pm 18.5 13.3 10.1 58 4.6 SSW 28 46 15 25 - - 0.0
10/03:30pm 18.5 13.7 9.0 54 5.0 SW 24 39 13 21 - - 0.0
10/03:00pm 20.2 15.2 9.7 51 5.7 SW 26 39 14 21 - - 0.0
10/02:30pm 19.4 14.5 9.9 54 5.2 SW 26 43 14 23 - - 0.0
10/02:02pm 19.8 14.5 9.7 52 5.5 SW 28 48 15 26 - - 0.0
10/02:00pm 19.6 15.0 9.8 53 5.3 SW 24 48 13 26 - - 0.0
10/01:30pm 17.6 13.8 9.8 60 4.2 SSW 20 32 11 17 - - 0.0
10/01:00pm 18.4 15.4 10.8 61 4.2 SSW 17 32 9 17 - - 0.0
10/12:30pm 16.5 13.9 11.9 74 2.6 SW 17 30 9 16 - - 0.0
10/12:00pm 16.5 14.3 12.1 75 2.4 SW 15 28 8 15 - - 0.0
10/11:30am 15.9 12.6 11.7 76 2.3 SW 20 32 11 17 - - 0.0
10/11:00am 16.1 12.9 11.1 72 2.7 SW 19 30 10 16 - - 0.0
10/10:30am 16.0 13.0 10.7 71 2.9 SSW 17 26 9 14 - - 0.0
10/10:00am 15.6 11.6 10.4 71 2.8 SSW 22 32 12 17 - - 0.0
10/09:30am 15.3 12.2 10.3 72 2.7 SSW 17 30 9 16 - - 0.0
10/09:00am 14.0 10.6 10.6 80 1.8 SSW 19 28 10 15 - - 0.0
10/08:30am 12.9 10.8 11.0 88 1.0 SSW 13 17 7 9 - - 0.0
10/08:00am 11.9 9.6 10.5 91 0.7 S 13 19 7 10 - - 0.0
10/07:30am 11.3 8.6 10.4 94 0.5 S 15 20 8 11 - - 0.0
10/07:00am 10.6 7.0 9.7 94 0.5 S 19 28 10 15 - - 0.0
10/06:30am 10.7 6.5 9.9 95 0.4 S 22 32 12 17 - - 0.0
10/06:00am 10.6 6.9 10.1 97 0.3 S 20 28 11 15 - - 0.0
10/05:30am 10.6 6.9 10.3 98 0.2 S 20 30 11 16 - - 0.0
10/05:00am 10.6 6.9 10.3 98 0.2 SSW 20 28 11 15 - - 0.0
10/04:30am 10.7 6.7 10.4 98 0.2 SSW 22 28 12 15 - - 0.0
10/04:00am 10.9 7.3 10.4 97 0.3 SSW 20 28 11 15 - - 0.0
10/03:30am 11.0 8.0 10.5 97 0.3 SSW 17 20 9 11 - - 0.0
10/03:00am 11.1 7.7 10.6 97 0.3 SSW 19 22 10 12 - - 0.0
10/02:30am 11.1 7.5 10.6 97 0.3 SSW 20 24 11 13 - - 0.0
10/02:00am 11.4 7.5 10.8 96 0.3 SSW 22 28 12 15 - - 0.0
10/01:30am 11.7 8.3 11.2 97 0.3 SSW 20 26 11 14 - - 0.0
10/01:00am 12.2 9.8 11.4 95 0.4 SW 15 19 8 10 - - 0.0
10/12:30am 13.5 11.3 10.7 83 1.5 SSE 13 15 7 8 - - 0.0
10/12:00am 13.7 11.6 11.2 85 1.3 SSE 13 19 7 10 - - 0.0
 
Date/Time
EDT
Temp
°C
App
Temp
°C
Dew
Point
Rel
Hum
%
Delta-T
°C
Wind Press
QNH
hPa
Press
MSL
hPa
Rain
since 9 am
mm
Dir
 
Spd
km/h
Gust
km/h
Spd
kts
Gust
kts
09/11:30pm 13.7 11.4 11.8 88 1.0 SSE 15 19 8 10 - - 0.0
09/11:00pm 13.9 11.3 11.9 88 1.1 SSE 17 20 9 11 - - 0.0
09/10:30pm 13.7 10.5 11.9 89 1.0 SSE 20 28 11 15 - - 0.0
09/10:00pm 14.0 11.4 11.9 87 1.1 S 17 24 9 13 - - 0.0
09/09:30pm 14.3 10.7 12.0 86 1.3 SSW 22 30 12 16 - - 0.0
09/09:00pm 14.5 11.3 12.0 85 1.4 SSW 20 30 11 16 - - 0.0
09/08:30pm 15.0 11.9 12.1 83 1.6 SW 20 32 11 17 - - 0.0
09/08:00pm 15.5 12.6 12.3 81 1.8 SW 19 30 10 16 - - 0.0
09/07:30pm 16.3 13.1 11.9 75 2.4 SW 20 32 11 17 - - 0.0
09/07:00pm 18.8 16.3 12.3 66 3.7 WSW 17 32 9 17 - - 0.0
09/06:30pm 20.2 17.9 11.9 59 4.7 WSW 15 26 8 14 - - 0.0
09/06:00pm 21.2 18.7 12.3 57 5.1 WSW 17 26 9 14 - - 0.0
09/05:30pm 22.9 21.3 12.8 53 5.9 W 13 20 7 11 - - 0.0
09/05:00pm 23.2 21.2 12.8 52 6.1 WSW 15 24 8 13 - - 0.0
09/04:30pm 24.5 21.7 13.1 49 6.7 W 20 30 11 16 - - 0.0
09/04:00pm 24.5 21.8 13.4 50 6.6 NW 20 33 11 18 - - 0.0
09/03:30pm 24.8 21.5 12.7 47 7.1 WNW 22 32 12 17 - - 0.0
09/03:00pm 25.9 23.4 12.4 43 7.9 WNW 17 30 9 16 - - 0.0
09/02:30pm 25.6 23.2 12.8 45 7.5 NNW 17 28 9 15 - - 0.0
09/02:00pm 23.9 22.3 12.8 49 6.5 NW 13 22 7 12 - - 0.0
09/01:30pm 24.5 22.4 13.7 51 6.4 NW 17 22 9 12 - - 0.0
09/01:00pm 25.9 23.8 13.7 47 7.3 NNW 17 26 9 14 - - 0.0
09/12:30pm 26.5 24.9 12.9 43 8.1 NNE 13 22 7 12 - - 0.0
09/12:00pm 24.5 22.4 12.5 47 7.0 NNE 15 24 8 13 - - 0.0
09/11:30am 22.5 20.8 12.4 52 5.8 NNE 13 24 7 13 - - 0.0
09/11:00am 22.1 20.5 12.9 56 5.3 ENE 13 20 7 11 - - 0.0
09/10:30am 22.2 20.1 13.5 57 5.1 NE 17 24 9 13 - - 0.0
09/10:00am 20.6 19.3 13.6 64 4.1 ENE 13 22 7 12 - - 0.0
09/09:30am 18.4 17.5 10.8 61 4.2 ESE 6 11 3 6 - - 0.0
09/09:00am 16.6 14.9 10.0 65 3.5 SSE 9 13 5 7 - - 0.0
09/08:30am 14.7 11.8 9.5 71 2.7 SSE 15 17 8 9 - - 0.0
09/08:00am 13.4 10.5 9.5 77 2.0 SSE 15 17 8 9 - - 0.0
09/07:30am 12.2 8.8 9.0 81 1.6 S 17 19 9 10 - - 0.0
09/07:00am 11.7 7.8 8.7 82 1.5 SSE 19 20 10 11 - - 0.0
09/06:30am 11.0 7.1 8.6 85 1.2 S 19 20 10 11 - - 0.0
09/06:00am 10.9 7.0 8.5 85 1.2 S 19 20 10 11 - - 0.0
09/05:30am 10.9 7.3 8.5 85 1.2 S 17 20 9 11 - - 0.0
09/05:00am 11.1 7.2 8.7 85 1.2 SSW 19 20 10 11 - - 0.0
09/04:30am 11.2 7.3 8.8 85 1.2 S 19 26 10 14 - - 0.0
09/04:00am 11.5 7.4 8.5 82 1.5 S 20 28 11 15 - - 0.0
09/03:30am 11.5 7.4 8.7 83 1.4 S 20 30 11 16 - - 0.0
09/03:00am 11.8 7.0 8.8 82 1.5 S 24 33 13 18 - - 0.0
09/02:30am 11.6 8.1 8.6 82 1.5 S 17 20 9 11 - - 0.0
09/02:00am 12.1 9.4 8.8 80 1.7 S 13 20 7 11 - - 0.0
09/01:30am 12.0 7.3 9.2 83 1.4 S 24 35 13 19 - - 0.0
09/01:00am 12.2 6.1 9.6 84 1.3 S 32 44 17 24 - - 0.0
09/12:30am 12.2 6.5 9.9 86 1.2 S 30 43 16 23 - - 0.0
09/12:00am 12.1 7.5 9.8 86 1.2 S 24 35 13 19 - - 0.0
 
Date/Time
EDT
Temp
°C
App
Temp
°C
Dew
Point
Rel
Hum
%
Delta-T
°C
Wind Press
QNH
hPa
Press
MSL
hPa
Rain
since 9 am
mm
Dir
 
Spd
km/h
Gust
km/h
Spd
kts
Gust
kts
08/11:30pm 12.2 8.0 9.9 86 1.2 S 22 33 12 18 - - 0.0
08/11:00pm 12.5 8.0 10.0 85 1.3 S 24 35 13 19 - - 0.0
08/10:30pm 12.8 8.3 10.2 84 1.4 S 24 35 13 19 - - 0.0
08/10:00pm 13.1 8.2 10.1 82 1.6 S 26 37 14 20 - - 0.0
08/09:30pm 13.5 8.6 9.9 79 1.9 S 26 35 14 19 - - 0.0
08/09:00pm 14.1 9.2 9.9 76 2.2 S 26 39 14 21 - - 0.0
08/08:30pm 14.6 10.5 10.0 74 2.4 S 22 33 12 18 - - 0.0
08/08:00pm 15.7 11.5 9.8 68 3.1 S 22 35 12 19 - - 0.0
08/07:30pm 16.3 11.0 9.9 66 3.4 SSW 28 43 15 23 - - 0.0
08/07:05pm 16.6 11.3 9.8 64 3.6 SSW 28 50 15 27 - - 0.0
08/07:00pm 17.3 12.4 10.0 62 3.9 S 26 39 14 21 - - 0.0
08/06:32pm 18.0 12.7 9.9 59 4.4 SSW 28 46 15 25 - - 0.0
08/06:30pm 18.0 12.3 9.9 59 4.4 SSW 30 46 16 25 - - 0.0
08/06:06pm 18.7 13.4 9.8 56 4.8 SSW 28 46 15 25 - - 0.0
08/06:00pm 18.8 13.1 9.8 56 4.9 SSW 30 46 16 25 - - 0.0
08/05:47pm 20.0 14.9 10.7 55 5.1 SSW 28 46 15 25 - - 0.0
08/05:30pm 19.9 14.3 10.3 54 5.3 SSW 30 46 16 25 - - 0.0
08/05:15pm 20.3 15.1 10.1 52 5.6 SW 28 46 15 25 - - 0.0
08/05:00pm 20.2 14.7 9.2 49 5.9 SW 28 41 15 22 - - 0.0
08/04:30pm 20.9 16.3 9.8 49 6.1 SW 24 41 13 22 - - 0.0
08/04:00pm 20.9 15.5 9.5 48 6.2 SW 28 43 15 23 - - 0.0
08/03:30pm 21.2 16.3 10.1 49 6.1 SSW 26 43 14 23 - - 0.0
08/03:00pm 20.4 15.8 9.6 50 5.9 SW 24 41 13 22 - - 0.0
08/02:30pm 20.7 16.2 9.9 50 5.9 SW 24 41 13 22 - - 0.0
08/02:07pm 21.4 16.4 10.9 51 5.9 SSW 28 46 15 25 - - 0.0
08/02:00pm 20.5 15.2 9.7 50 5.9 SW 28 43 15 23 - - 0.0
08/01:49pm 20.7 15.5 10.2 51 5.8 SW 28 46 15 25 - - 0.0

Other Formats:

Comma delimited format used in spreadsheet applications
http://www.bom.gov.au/fwo/IDT60801/IDT60801.95956.axf

JavaScript Object Notation format (JSON) in row-major order
http://www.bom.gov.au/fwo/IDT60801/IDT60801.95956.json